Delaware, Delaware Municipal Airport (KDLZ)

NameDelaware Municipal Airport
CityDelaware
CountryUnited States
ICAOKDLZ
IATA
Altitude288 m
CoordinatesGoogle Map
Live Air TrafficLiveATC.net
METARKDLZ 181656Z AUTO 30009G14KT 10SM BKN017 OVC023 M01/M04 A3020 RMK AO2
2019-02-18 16:56:00 Wind: West-Northwest (300°) 4.63 m/s - Visibility: 16093.4 m - Temperature: -1 °C - Dew point: -4 °C - Humidity: 80.3% - Pressure: 1022.69 hPa
Statistics

The table below shows the detailed information of all flights to/from Delaware, Delaware Municipal Airport (KDLZ).